CYBR

Brandon Municipal Airport

Brandon, Manitoba, Canada
METAR CYBR 122000Z VRB02KT 15SM SCT130 OVC200 M01/M01 A2944 RMK AC4CI4 SLP994
Observed Flight Rules
Dec-12 @ 20:00 UTC (an hour ago) Visual Flight Rules
Wind Visibility Clouds
Variable at 2 knots 15 miles
  • Scattered at 13,000' AGL
  • Overcast at 20,000' AGL
Temperatures Readings
Current -1°C / 30°F
Dewpoint -1°C / 30°F
Humidity 100%
Altimeter 29.44" Hg
Pressure 999.4 hPa
Elevation 409
METAR CYBR 122000Z VRB02KT 15SM SCT130 OVC200 M01/M01 A2944 RMK AC4CI4 SLP994
Observed Flight Rules
Dec-12 @ 20:00 UTC
(an hour ago)
VFR
Wind Visibility
Variable at 2 knots 15 miles
Clouds
  • Scattered at 13,000' AGL
  • Overcast at 20,000' AGL
Temperature Dewpoint
-1°C / 30°F -1°C / 30°F
Humidity Altimeter Pressure
100% 29.44" Hg 999.4 hPa